sensor_id;sensor_type;location;lat;lon;timestamp;pressure;altitude;pressure_sealevel;temperature;humidity
62201;BME280;48197;42.732;27.192;2023-05-27T00:01:12;99488.19;;;15.56;100.00
62201;BME280;48197;42.732;27.192;2023-05-27T00:03:40;99489.75;;;15.57;100.00
62201;BME280;48197;42.732;27.192;2023-05-27T00:06:07;99485.84;;;15.54;100.00
62201;BME280;48197;42.732;27.192;2023-05-27T00:08:34;99493.78;;;15.56;100.00
62201;BME280;48197;42.732;27.192;2023-05-27T00:11:01;99490.84;;;15.59;100.00
62201;BME280;48197;42.732;27.192;2023-05-27T00:13:28;99488.75;;;15.63;100.00
62201;BME280;48197;42.732;27.192;2023-05-27T00:15:55;99485.09;;;15.66;100.00
62201;BME280;48197;42.732;27.192;2023-05-27T00:18:22;99487.41;;;15.68;100.00
62201;BME280;48197;42.732;27.192;2023-05-27T00:20:49;99493.09;;;15.64;100.00
62201;BME280;48197;42.732;27.192;2023-05-27T00:23:16;99495.09;;;15.64;100.00
62201;BME280;48197;42.732;27.192;2023-05-27T00:25:43;99494.53;;;15.56;100.00
62201;BME280;48197;42.732;27.192;2023-05-27T00:28:10;99501.88;;;15.50;100.00
62201;BME280;48197;42.732;27.192;2023-05-27T00:30:37;99492.84;;;15.46;100.00
62201;BME280;48197;42.732;27.192;2023-05-27T00:33:05;99488.53;;;15.45;100.00
62201;BME280;48197;42.732;27.192;2023-05-27T00:35:32;99492.84;;;15.46;100.00
62201;BME280;48197;42.732;27.192;2023-05-27T00:37:59;99494.09;;;15.45;100.00
62201;BME280;48197;42.732;27.192;2023-05-27T00:40:26;99491.31;;;15.45;100.00
62201;BME280;48197;42.732;27.192;2023-05-27T00:42:56;99494.97;;;15.42;100.00
62201;BME280;48197;42.732;27.192;2023-05-27T00:45:23;99481.25;;;15.35;100.00
62201;BME280;48197;42.732;27.192;2023-05-27T00:47:49;99489.72;;;15.31;100.00
62201;BME280;48197;42.732;27.192;2023-05-27T00:50:17;99480.91;;;15.32;100.00
62201;BME280;48197;42.732;27.192;2023-05-27T00:52:45;99488.25;;;15.26;100.00
62201;BME280;48197;42.732;27.192;2023-05-27T00:55:13;99480.91;;;15.20;100.00
62201;BME280;48197;42.732;27.192;2023-05-27T00:57:43;99477.97;;;15.10;100.00
62201;BME280;48197;42.732;27.192;2023-05-27T01:00:10;99483.06;;;14.99;100.00
62201;BME280;48197;42.732;27.192;2023-05-27T01:02:38;99481.84;;;15.00;100.00
62201;BME280;48197;42.732;27.192;2023-05-27T01:05:07;99481.50;;;14.98;100.00
62201;BME280;48197;42.732;27.192;2023-05-27T01:07:37;99474.38;;;14.97;100.00
62201;BME280;48197;42.732;27.192;2023-05-27T01:10:11;99471.50;;;15.01;100.00
62201;BME280;48197;42.732;27.192;2023-05-27T01:15:39;99465.69;;;14.95;100.00
62201;BME280;48197;42.732;27.192;2023-05-27T01:18:07;99476.13;;;14.91;100.00
62201;BME280;48197;42.732;27.192;2023-05-27T01:20:35;99479.16;;;14.97;100.00
62201;BME280;48197;42.732;27.192;2023-05-27T01:23:10;99474.28;;;15.01;100.00
62201;BME280;48197;42.732;27.192;2023-05-27T01:25:38;99462.59;;;15.06;100.00
62201;BME280;48197;42.732;27.192;2023-05-27T01:28:05;99457.69;;;15.10;100.00
62201;BME280;48197;42.732;27.192;2023-05-27T01:30:32;99459.81;;;15.06;100.00
62201;BME280;48197;42.732;27.192;2023-05-27T01:33:04;99451.75;;;14.95;100.00
62201;BME280;48197;42.732;27.192;2023-05-27T01:35:48;99449.63;;;14.86;100.00
62201;BME280;48197;42.732;27.192;2023-05-27T01:38:19;99447.97;;;14.89;100.00
62201;BME280;48197;42.732;27.192;2023-05-27T01:40:48;99456.13;;;14.96;100.00
62201;BME280;48197;42.732;27.192;2023-05-27T01:43:16;99453.78;;;14.95;100.00
62201;BME280;48197;42.732;27.192;2023-05-27T01:45:44;99454.88;;;14.97;100.00
62201;BME280;48197;42.732;27.192;2023-05-27T01:48:11;99451.13;;;15.04;100.00
62201;BME280;48197;42.732;27.192;2023-05-27T01:50:38;99454.69;;;15.04;100.00
62201;BME280;48197;42.732;27.192;2023-05-27T01:53:06;99454.16;;;15.09;100.00
62201;BME280;48197;42.732;27.192;2023-05-27T01:55:33;99463.72;;;15.08;100.00
62201;BME280;48197;42.732;27.192;2023-05-27T01:57:58;99459.47;;;15.04;100.00
62201;BME280;48197;42.732;27.192;2023-05-27T02:00:25;99467.03;;;15.03;100.00
62201;BME280;48197;42.732;27.192;2023-05-27T02:02:52;99464.25;;;15.03;100.00
62201;BME280;48197;42.732;27.192;2023-05-27T02:05:20;99463.56;;;14.99;100.00
62201;BME280;48197;42.732;27.192;2023-05-27T02:07:47;99452.44;;;14.99;100.00
62201;BME280;48197;42.732;27.192;2023-05-27T02:10:14;99463.13;;;15.01;100.00
62201;BME280;48197;42.732;27.192;2023-05-27T02:12:41;99463.91;;;15.01;100.00
62201;BME280;48197;42.732;27.192;2023-05-27T02:15:10;99456.81;;;15.00;100.00
62201;BME280;48197;42.732;27.192;2023-05-27T02:17:37;99458.00;;;14.99;100.00
62201;BME280;48197;42.732;27.192;2023-05-27T02:20:05;99457.56;;;15.01;100.00
62201;BME280;48197;42.732;27.192;2023-05-27T02:22:33;99455.56;;;15.01;100.00
62201;BME280;48197;42.732;27.192;2023-05-27T02:24:59;99455.56;;;15.01;100.00
62201;BME280;48197;42.732;27.192;2023-05-27T02:27:26;99450.00;;;15.01;100.00
62201;BME280;48197;42.732;27.192;2023-05-27T02:29:53;99448.78;;;15.02;100.00
62201;BME280;48197;42.732;27.192;2023-05-27T02:32:20;99452.34;;;15.03;100.00
62201;BME280;48197;42.732;27.192;2023-05-27T02:34:47;99452.00;;;15.01;100.00
62201;BME280;48197;42.732;27.192;2023-05-27T02:37:14;99455.91;;;15.03;100.00
62201;BME280;48197;42.732;27.192;2023-05-27T02:39:42;99462.25;;;15.04;100.00
62201;BME280;48197;42.732;27.192;2023-05-27T02:42:09;99459.47;;;15.04;100.00
62201;BME280;48197;42.732;27.192;2023-05-27T02:44:36;99467.81;;;15.04;100.00
62201;BME280;48197;42.732;27.192;2023-05-27T02:47:03;99467.81;;;15.04;100.00
62201;BME280;48197;42.732;27.192;2023-05-27T02:49:30;99471.06;;;15.02;100.00
62201;BME280;48197;42.732;27.192;2023-05-27T02:51:57;99475.38;;;15.03;100.00
62201;BME280;48197;42.732;27.192;2023-05-27T02:54:24;99475.28;;;15.07;100.00
62201;BME280;48197;42.732;27.192;2023-05-27T02:56:50;99471.88;;;15.16;100.00
62201;BME280;48197;42.732;27.192;2023-05-27T02:59:17;99469.63;;;15.23;100.00
62201;BME280;48197;42.732;27.192;2023-05-27T03:01:44;99470.66;;;15.29;100.00
62201;BME280;48197;42.732;27.192;2023-05-27T03:04:11;99475.13;;;15.40;100.00
62201;BME280;48197;42.732;27.192;2023-05-27T03:06:38;99475.59;;;15.51;100.00
62201;BME280;48197;42.732;27.192;2023-05-27T03:09:05;99480.50;;;15.60;100.00
62201;BME280;48197;42.732;27.192;2023-05-27T03:11:34;99457.31;;;15.50;100.00
62201;BME280;48197;42.732;27.192;2023-05-27T03:14:01;99491.13;;;15.78;100.00
62201;BME280;48197;42.732;27.192;2023-05-27T03:16:28;99488.91;;;15.85;100.00
62201;BME280;48197;42.732;27.192;2023-05-27T03:18:55;99497.81;;;15.93;100.00
62201;BME280;48197;42.732;27.192;2023-05-27T03:21:22;99502.72;;;16.02;100.00
62201;BME280;48197;42.732;27.192;2023-05-27T03:23:49;99504.47;;;16.08;100.00
62201;BME280;48197;42.732;27.192;2023-05-27T03:26:16;99513.75;;;16.18;100.00
62201;BME280;48197;42.732;27.192;2023-05-27T03:28:44;99515.84;;;16.27;100.00
62201;BME280;48197;42.732;27.192;2023-05-27T03:31:11;99517.72;;;16.30;100.00
62201;BME280;48197;42.732;27.192;2023-05-27T03:33:40;99520.72;;;16.36;100.00
62201;BME280;48197;42.732;27.192;2023-05-27T03:36:08;99526.97;;;16.40;100.00
62201;BME280;48197;42.732;27.192;2023-05-27T03:38:35;99531.66;;;16.43;100.00
62201;BME280;48197;42.732;27.192;2023-05-27T03:41:02;99531.53;;;16.46;100.00
62201;BME280;48197;42.732;27.192;2023-05-27T03:43:30;99529.75;;;16.52;100.00
62201;BME280;48197;42.732;27.192;2023-05-27T03:45:56;99533.84;;;16.61;100.00
62201;BME280;48197;42.732;27.192;2023-05-27T03:48:23;99528.16;;;16.64;100.00
62201;BME280;48197;42.732;27.192;2023-05-27T03:50:51;99530.03;;;16.67;100.00
62201;BME280;48197;42.732;27.192;2023-05-27T03:53:18;99528.34;;;16.70;100.00
62201;BME280;48197;42.732;27.192;2023-05-27T03:55:45;99533.22;;;16.79;100.00
62201;BME280;48197;42.732;27.192;2023-05-27T03:58:11;99537.47;;;16.83;100.00
62201;BME280;48197;42.732;27.192;2023-05-27T04:00:40;99531.34;;;16.88;100.00
62201;BME280;48197;42.732;27.192;2023-05-27T04:03:11;99531.41;;;16.98;100.00
62201;BME280;48197;42.732;27.192;2023-05-27T04:05:38;99531.69;;;17.12;100.00
62201;BME280;48197;42.732;27.192;2023-05-27T04:08:05;99540.91;;;17.22;100.00
62201;BME280;48197;42.732;27.192;2023-05-27T04:10:33;99535.84;;;17.30;100.00
62201;BME280;48197;42.732;27.192;2023-05-27T04:12:59;99543.88;;;17.28;100.00
62201;BME280;48197;42.732;27.192;2023-05-27T04:15:27;99550.97;;;17.42;100.00
62201;BME280;48197;42.732;27.192;2023-05-27T04:17:55;99550.38;;;17.69;100.00
62201;BME280;48197;42.732;27.192;2023-05-27T04:20:22;99554.69;;;17.92;100.00
62201;BME280;48197;42.732;27.192;2023-05-27T04:22:50;99539.84;;;18.13;100.00
62201;BME280;48197;42.732;27.192;2023-05-27T04:25:16;99547.53;;;18.31;100.00
62201;BME280;48197;42.732;27.192;2023-05-27T04:27:44;99547.56;;;18.41;100.00
62201;BME280;48197;42.732;27.192;2023-05-27T04:30:09;99557.22;;;18.40;100.00
62201;BME280;48197;42.732;27.192;2023-05-27T04:32:36;99556.41;;;18.39;100.00
62201;BME280;48197;42.732;27.192;2023-05-27T04:35:05;99564.53;;;18.46;100.00
62201;BME280;48197;42.732;27.192;2023-05-27T04:37:33;99556.47;;;18.57;100.00
62201;BME280;48197;42.732;27.192;2023-05-27T04:40:01;99561.78;;;18.74;100.00
62201;BME280;48197;42.732;27.192;2023-05-27T04:42:29;99566.34;;;18.99;100.00
62201;BME280;48197;42.732;27.192;2023-05-27T04:44:56;99558.84;;;19.24;100.00
62201;BME280;48197;42.732;27.192;2023-05-27T04:47:23;99568.34;;;19.35;100.00
62201;BME280;48197;42.732;27.192;2023-05-27T04:49:50;99564.91;;;19.41;100.00
62201;BME280;48197;42.732;27.192;2023-05-27T04:52:18;99564.88;;;19.50;100.00
62201;BME280;48197;42.732;27.192;2023-05-27T04:54:47;99564.88;;;19.50;100.00
62201;BME280;48197;42.732;27.192;2023-05-27T04:57:14;99566.47;;;19.51;100.00
62201;BME280;48197;42.732;27.192;2023-05-27T04:59:45;99561.44;;;19.64;100.00
62201;BME280;48197;42.732;27.192;2023-05-27T05:02:34;99560.56;;;20.01;100.00
62201;BME280;48197;42.732;27.192;2023-05-27T05:05:02;99558.31;;;20.23;100.00
62201;BME280;48197;42.732;27.192;2023-05-27T05:07:29;99554.34;;;20.63;100.00
62201;BME280;48197;42.732;27.192;2023-05-27T05:09:57;99552.72;;;21.34;100.00
62201;BME280;48197;42.732;27.192;2023-05-27T05:12:25;99553.63;;;21.70;100.00
62201;BME280;48197;42.732;27.192;2023-05-27T05:14:52;99557.41;;;21.52;100.00
62201;BME280;48197;42.732;27.192;2023-05-27T05:17:19;99557.13;;;21.11;100.00
62201;BME280;48197;42.732;27.192;2023-05-27T05:19:52;99553.84;;;20.89;100.00
62201;BME280;48197;42.732;27.192;2023-05-27T05:22:19;99548.94;;;20.50;100.00
62201;BME280;48197;42.732;27.192;2023-05-27T05:24:49;99555.50;;;20.23;100.00
62201;BME280;48197;42.732;27.192;2023-05-27T05:27:16;99566.69;;;19.90;100.00
62201;BME280;48197;42.732;27.192;2023-05-27T05:29:43;99560.22;;;19.65;100.00
62201;BME280;48197;42.732;27.192;2023-05-27T05:32:10;99566.47;;;19.51;100.00
62201;BME280;48197;42.732;27.192;2023-05-27T05:34:37;99573.19;;;19.26;100.00
62201;BME280;48197;42.732;27.192;2023-05-27T05:37:05;99573.66;;;19.15;100.00
62201;BME280;48197;42.732;27.192;2023-05-27T05:39:33;99567.72;;;19.13;100.00
62201;BME280;48197;42.732;27.192;2023-05-27T05:42:00;99567.09;;;19.18;100.00
62201;BME280;48197;42.732;27.192;2023-05-27T05:44:28;99559.47;;;19.37;100.00
62201;BME280;48197;42.732;27.192;2023-05-27T05:46:55;99560.22;;;19.65;100.00
62201;BME280;48197;42.732;27.192;2023-05-27T05:49:23;99563.00;;;19.74;100.00
62201;BME280;48197;42.732;27.192;2023-05-27T05:51:50;99558.78;;;19.61;100.00
62201;BME280;48197;42.732;27.192;2023-05-27T05:54:17;99564.28;;;19.46;100.00
62201;BME280;48197;42.732;27.192;2023-05-27T05:56:44;99565.84;;;19.47;100.00
62201;BME280;48197;42.732;27.192;2023-05-27T05:59:11;99572.34;;;19.62;100.00
62201;BME280;48197;42.732;27.192;2023-05-27T06:01:36;99568.28;;;19.91;100.00
62201;BME280;48197;42.732;27.192;2023-05-27T06:04:03;99571.59;;;20.13;100.00
62201;BME280;48197;42.732;27.192;2023-05-27T06:06:30;99575.44;;;20.25;100.00
62201;BME280;48197;42.732;27.192;2023-05-27T06:08:57;99584.72;;;20.40;100.00
62201;BME280;48197;42.732;27.192;2023-05-27T06:11:25;99572.72;;;20.40;100.00
62201;BME280;48197;42.732;27.192;2023-05-27T06:13:53;99583.03;;;20.34;100.00
62201;BME280;48197;42.732;27.192;2023-05-27T06:16:20;99586.19;;;20.27;100.00
62201;BME280;48197;42.732;27.192;2023-05-27T06:18:47;99581.09;;;20.16;100.00
62201;BME280;48197;42.732;27.192;2023-05-27T06:21:14;99593.63;;;20.06;100.00
62201;BME280;48197;42.732;27.192;2023-05-27T06:23:41;99584.91;;;19.94;100.00
62201;BME280;48197;42.732;27.192;2023-05-27T06:26:08;99594.72;;;19.99;100.00
62201;BME280;48197;42.732;27.192;2023-05-27T06:28:35;99590.31;;;20.07;100.00
62201;BME280;48197;42.732;27.192;2023-05-27T06:31:03;99594.50;;;20.21;100.00
62201;BME280;48197;42.732;27.192;2023-05-27T06:45:39;99601.69;;;20.13;100.00
62201;BME280;48197;42.732;27.192;2023-05-27T06:48:07;99600.66;;;19.92;100.00
62201;BME280;48197;42.732;27.192;2023-05-27T06:50:34;99597.50;;;19.99;100.00
62201;BME280;48197;42.732;27.192;2023-05-27T06:53:01;99597.31;;;20.12;100.00
62201;BME280;48197;42.732;27.192;2023-05-27T06:55:29;99603.06;;;20.17;100.00
62201;BME280;48197;42.732;27.192;2023-05-27T06:57:57;99596.59;;;20.35;100.00
62201;BME280;48197;42.732;27.192;2023-05-27T07:00:24;99603.34;;;20.62;100.00
62201;BME280;48197;42.732;27.192;2023-05-27T07:02:52;99599.31;;;20.87;100.00
62201;BME280;48197;42.732;27.192;2023-05-27T07:05:19;99603.72;;;20.79;100.00
62201;BME280;48197;42.732;27.192;2023-05-27T07:07:47;99600.13;;;20.78;100.00
62201;BME280;48197;42.732;27.192;2023-05-27T07:10:14;99599.16;;;20.57;100.00
62201;BME280;48197;42.732;27.192;2023-05-27T07:12:41;99599.69;;;20.37;100.00
62201;BME280;48197;42.732;27.192;2023-05-27T07:15:09;99611.41;;;20.36;100.00
62201;BME280;48197;42.732;27.192;2023-05-27T07:17:36;99606.44;;;20.31;100.00
62201;BME280;48197;42.732;27.192;2023-05-27T07:20:04;99601.16;;;20.24;100.00
62201;BME280;48197;42.732;27.192;2023-05-27T07:22:31;99600.72;;;20.25;100.00
62201;BME280;48197;42.732;27.192;2023-05-27T07:24:58;99605.34;;;20.28;100.00
62201;BME280;48197;42.732;27.192;2023-05-27T07:27:26;99611.38;;;20.45;100.00
62201;BME280;48197;42.732;27.192;2023-05-27T07:29:53;99605.84;;;20.60;100.00
62201;BME280;48197;42.732;27.192;2023-05-27T07:32:20;99607.97;;;20.74;100.00
62201;BME280;48197;42.732;27.192;2023-05-27T07:34:48;99612.06;;;20.88;100.00
62201;BME280;48197;42.732;27.192;2023-05-27T07:37:15;99611.25;;;20.73;100.00
62201;BME280;48197;42.732;27.192;2023-05-27T07:39:42;99610.47;;;20.72;100.00
62201;BME280;48197;42.732;27.192;2023-05-27T07:42:09;99612.38;;;20.66;100.00
62201;BME280;48197;42.732;27.192;2023-05-27T07:44:36;99616.56;;;20.71;100.00
62201;BME280;48197;42.732;27.192;2023-05-27T07:47:03;99608.56;;;20.78;100.00
62201;BME280;48197;42.732;27.192;2023-05-27T07:49:30;99610.84;;;20.89;100.00
62201;BME280;48197;42.732;27.192;2023-05-27T07:51:58;99610.53;;;20.87;100.00
62201;BME280;48197;42.732;27.192;2023-05-27T07:54:25;99606.81;;;20.81;100.00
62201;BME280;48197;42.732;27.192;2023-05-27T07:56:53;99612.03;;;20.97;100.00
62201;BME280;48197;42.732;27.192;2023-05-27T07:59:21;99610.09;;;21.04;100.00
62201;BME280;48197;42.732;27.192;2023-05-27T08:01:48;99602.81;;;20.97;100.00
62201;BME280;48197;42.732;27.192;2023-05-27T08:04:15;99607.81;;;21.17;100.00
62201;BME280;48197;42.732;27.192;2023-05-27T08:06:42;99603.06;;;21.08;100.00
62201;BME280;48197;42.732;27.192;2023-05-27T08:09:09;99608.94;;;21.34;100.00
62201;BME280;48197;42.732;27.192;2023-05-27T08:11:36;99608.22;;;21.49;100.00
62201;BME280;48197;42.732;27.192;2023-05-27T08:14:03;99607.06;;;21.55;100.00
62201;BME280;48197;42.732;27.192;2023-05-27T08:16:30;99609.75;;;21.50;100.00
62201;BME280;48197;42.732;27.192;2023-05-27T08:18:57;99611.38;;;21.41;100.00
62201;BME280;48197;42.732;27.192;2023-05-27T08:21:24;99613.84;;;21.49;100.00
62201;BME280;48197;42.732;27.192;2023-05-27T08:23:52;99615.41;;;21.65;100.00
62201;BME280;48197;42.732;27.192;2023-05-27T08:26:19;99614.03;;;21.75;100.00
62201;BME280;48197;42.732;27.192;2023-05-27T08:28:46;99607.84;;;22.00;100.00
62201;BME280;48197;42.732;27.192;2023-05-27T08:31:15;99611.41;;;22.16;100.00
62201;BME280;48197;42.732;27.192;2023-05-27T08:33:40;99601.50;;;22.71;100.00
62201;BME280;48197;42.732;27.192;2023-05-27T08:36:08;99605.38;;;23.14;100.00
62201;BME280;48197;42.732;27.192;2023-05-27T08:38:35;99601.63;;;23.43;100.00
62201;BME280;48197;42.732;27.192;2023-05-27T08:41:03;99604.09;;;23.36;100.00
62201;BME280;48197;42.732;27.192;2023-05-27T08:43:30;99612.75;;;22.91;100.00
62201;BME280;48197;42.732;27.192;2023-05-27T08:45:57;99608.66;;;22.72;100.00
62201;BME280;48197;42.732;27.192;2023-05-27T08:48:25;99606.13;;;22.74;100.00
62201;BME280;48197;42.732;27.192;2023-05-27T08:50:53;99605.16;;;22.77;100.00
62201;BME280;48197;42.732;27.192;2023-05-27T08:53:19;99601.41;;;23.00;100.00
62201;BME280;48197;42.732;27.192;2023-05-27T08:55:48;99592.94;;;23.00;100.00
62201;BME280;48197;42.732;27.192;2023-05-27T08:58:17;99585.00;;;22.84;100.00
62201;BME280;48197;42.732;27.192;2023-05-27T09:00:44;99598.16;;;22.72;100.00
62201;BME280;48197;42.732;27.192;2023-05-27T09:03:12;99592.03;;;23.09;100.00
62201;BME280;48197;42.732;27.192;2023-05-27T09:05:39;99585.25;;;23.48;100.00
62201;BME280;48197;42.732;27.192;2023-05-27T09:08:06;99586.94;;;24.18;100.00
62201;BME280;48197;42.732;27.192;2023-05-27T09:10:40;99577.63;;;24.49;100.00
62201;BME280;48197;42.732;27.192;2023-05-27T09:13:07;99573.56;;;24.18;100.00
62201;BME280;48197;42.732;27.192;2023-05-27T09:15:35;99575.47;;;24.33;100.00
62201;BME280;48197;42.732;27.192;2023-05-27T09:18:02;99571.53;;;24.19;100.00
62201;BME280;48197;42.732;27.192;2023-05-27T09:20:30;99561.56;;;23.92;100.00
62201;BME280;48197;42.732;27.192;2023-05-27T09:22:58;99558.59;;;24.44;100.00
62201;BME280;48197;42.732;27.192;2023-05-27T09:25:25;99560.94;;;25.00;100.00
62201;BME280;48197;42.732;27.192;2023-05-27T09:27:54;99551.84;;;25.84;100.00
62201;BME280;48197;42.732;27.192;2023-05-27T09:30:22;99549.72;;;26.46;100.00
62201;BME280;48197;42.732;27.192;2023-05-27T09:32:49;99550.97;;;26.68;100.00
62201;BME280;48197;42.732;27.192;2023-05-27T09:35:16;99550.03;;;25.81;100.00
62201;BME280;48197;42.732;27.192;2023-05-27T09:37:43;99543.34;;;25.44;100.00
62201;BME280;48197;42.732;27.192;2023-05-27T10:11:12;99516.94;;;24.88;100.00
62201;BME280;48197;42.732;27.192;2023-05-27T10:13:39;99510.19;;;24.62;100.00
62201;BME280;48197;42.732;27.192;2023-05-27T10:16:06;99519.44;;;24.63;100.00
62201;BME280;48197;42.732;27.192;2023-05-27T10:18:33;99507.06;;;24.55;100.00
62201;BME280;48197;42.732;27.192;2023-05-27T10:21:03;99504.16;;;24.43;100.00
62201;BME280;48197;42.732;27.192;2023-05-27T10:23:30;99508.81;;;25.18;100.00
62201;BME280;48197;42.732;27.192;2023-05-27T10:28:25;99504.00;;;25.52;100.00
62201;BME280;48197;42.732;27.192;2023-05-27T10:30:52;99495.16;;;25.11;100.00
62201;BME280;48197;42.732;27.192;2023-05-27T10:33:33;99506.56;;;24.56;100.00
62201;BME280;48197;42.732;27.192;2023-05-27T10:36:04;99497.78;;;24.49;100.00
62201;BME280;48197;42.732;27.192;2023-05-27T10:38:31;99504.03;;;24.21;100.00
62201;BME280;48197;42.732;27.192;2023-05-27T10:40:59;99495.13;;;23.91;100.00
62201;BME280;48197;42.732;27.192;2023-05-27T10:43:28;99494.34;;;23.64;100.00
62201;BME280;48197;42.732;27.192;2023-05-27T10:46:11;99486.19;;;23.34;100.00
62201;BME280;48197;42.732;27.192;2023-05-27T10:48:39;99482.91;;;22.69;100.00
62201;BME280;48197;42.732;27.192;2023-05-27T10:51:07;99473.66;;;21.92;100.00
62201;BME280;48197;42.732;27.192;2023-05-27T10:53:34;99469.56;;;21.57;100.00
62201;BME280;48197;42.732;27.192;2023-05-27T10:56:01;99459.16;;;20.89;100.00
62201;BME280;48197;42.732;27.192;2023-05-27T10:58:29;99467.31;;;20.15;100.00
62201;BME280;48197;42.732;27.192;2023-05-27T11:00:56;99454.88;;;20.31;100.00
62201;BME280;48197;42.732;27.192;2023-05-27T11:03:27;99461.00;;;21.07;100.00
62201;BME280;48197;42.732;27.192;2023-05-27T11:06:04;99466.69;;;22.63;100.00
62201;BME280;48197;42.732;27.192;2023-05-27T11:08:34;99451.38;;;24.67;100.00
62201;BME280;48197;42.732;27.192;2023-05-27T11:11:02;99448.69;;;25.51;100.00
62201;BME280;48197;42.732;27.192;2023-05-27T11:13:38;99437.25;;;27.24;100.00
62201;BME280;48197;42.732;27.192;2023-05-27T11:16:06;99436.84;;;28.43;100.00
62201;BME280;48197;42.732;27.192;2023-05-27T11:18:37;99446.59;;;27.49;100.00
62201;BME280;48197;42.732;27.192;2023-05-27T11:21:05;99437.59;;;25.98;100.00
62201;BME280;48197;42.732;27.192;2023-05-27T11:26:01;99436.06;;;24.36;100.00
62201;BME280;48197;42.732;27.192;2023-05-27T11:28:28;99439.59;;;23.76;100.00
62201;BME280;48197;42.732;27.192;2023-05-27T11:30:58;99451.66;;;23.13;100.00
62201;BME280;48197;42.732;27.192;2023-05-27T11:33:31;99453.72;;;22.72;100.00
62201;BME280;48197;42.732;27.192;2023-05-27T11:36:10;99453.97;;;22.27;100.00
62201;BME280;48197;42.732;27.192;2023-05-27T11:41:14;99464.94;;;21.90;100.00
62201;BME280;48197;42.732;27.192;2023-05-27T11:43:56;99450.47;;;21.61;100.00
62201;BME280;48197;42.732;27.192;2023-05-27T11:46:24;99457.53;;;21.42;100.00
62201;BME280;48197;42.732;27.192;2023-05-27T11:48:58;99441.34;;;21.22;100.00
62201;BME280;48197;42.732;27.192;2023-05-27T11:51:29;99442.19;;;20.45;100.00
62201;BME280;48197;42.732;27.192;2023-05-27T11:53:57;99440.31;;;19.08;100.00
62201;BME280;48197;42.732;27.192;2023-05-27T11:56:24;99465.16;;;18.14;100.00
62201;BME280;48197;42.732;27.192;2023-05-27T11:58:51;99464.06;;;17.80;100.00
62201;BME280;48197;42.732;27.192;2023-05-27T12:01:19;99462.78;;;17.63;100.00
62201;BME280;48197;42.732;27.192;2023-05-27T12:03:46;99458.25;;;17.56;100.00
62201;BME280;48197;42.732;27.192;2023-05-27T12:06:13;99464.69;;;17.44;100.00
62201;BME280;48197;42.732;27.192;2023-05-27T12:08:40;99471.03;;;17.35;100.00
62201;BME280;48197;42.732;27.192;2023-05-27T12:11:07;99466.00;;;17.30;100.00
62201;BME280;48197;42.732;27.192;2023-05-27T12:13:35;99470.81;;;17.29;100.00
62201;BME280;48197;42.732;27.192;2023-05-27T12:16:01;99487.13;;;17.31;100.00
62201;BME280;48197;42.732;27.192;2023-05-27T12:18:29;99491.06;;;17.43;100.00
62201;BME280;48197;42.732;27.192;2023-05-27T12:20:56;99503.97;;;17.49;100.00
62201;BME280;48197;42.732;27.192;2023-05-27T12:23:24;99504.53;;;17.35;100.00
62201;BME280;48197;42.732;27.192;2023-05-27T12:25:52;99506.81;;;17.27;100.00
62201;BME280;48197;42.732;27.192;2023-05-27T12:28:18;99495.50;;;17.31;100.00
62201;BME280;48197;42.732;27.192;2023-05-27T12:30:46;99490.69;;;17.31;100.00
62201;BME280;48197;42.732;27.192;2023-05-27T12:33:13;99497.31;;;17.25;100.00
62201;BME280;48197;42.732;27.192;2023-05-27T12:35:40;99487.78;;;17.13;100.00
62201;BME280;48197;42.732;27.192;2023-05-27T12:38:07;99482.59;;;17.02;100.00
62201;BME280;48197;42.732;27.192;2023-05-27T12:40:37;99474.59;;;16.91;100.00
62201;BME280;48197;42.732;27.192;2023-05-27T12:43:05;99483.78;;;16.92;100.00
62201;BME280;48197;42.732;27.192;2023-05-27T12:45:32;99482.25;;;17.00;100.00
62201;BME280;48197;42.732;27.192;2023-05-27T12:48:00;99485.84;;;17.01;100.00
62201;BME280;48197;42.732;27.192;2023-05-27T12:50:27;99490.63;;;17.00;100.00
62201;BME280;48197;42.732;27.192;2023-05-27T12:52:55;99488.00;;;16.97;100.00
62201;BME280;48197;42.732;27.192;2023-05-27T12:55:22;99483.13;;;16.88;100.00
62201;BME280;48197;42.732;27.192;2023-05-27T12:57:50;99484.13;;;16.81;100.00
62201;BME280;48197;42.732;27.192;2023-05-27T13:00:17;99484.25;;;16.78;100.00
62201;BME280;48197;42.732;27.192;2023-05-27T13:02:44;99468.28;;;16.78;100.00
62201;BME280;48197;42.732;27.192;2023-05-27T13:05:13;99463.38;;;16.82;100.00
62201;BME280;48197;42.732;27.192;2023-05-27T13:07:41;99452.25;;;16.91;100.00
62201;BME280;48197;42.732;27.192;2023-05-27T13:10:18;99458.50;;;16.96;100.00
62201;BME280;48197;42.732;27.192;2023-05-27T13:12:47;99453.00;;;17.05;100.00
62201;BME280;48197;42.732;27.192;2023-05-27T13:15:14;99452.34;;;17.01;100.00
62201;BME280;48197;42.732;27.192;2023-05-27T13:17:44;99460.97;;;16.93;100.00
62201;BME280;48197;42.732;27.192;2023-05-27T13:20:13;99459.88;;;16.91;100.00
62201;BME280;48197;42.732;27.192;2023-05-27T13:22:41;99465.25;;;17.07;100.00
62201;BME280;48197;42.732;27.192;2023-05-27T13:25:07;99456.28;;;17.12;100.00
62201;BME280;48197;42.732;27.192;2023-05-27T13:27:34;99459.59;;;17.20;100.00
62201;BME280;48197;42.732;27.192;2023-05-27T13:30:01;99463.03;;;17.24;100.00
62201;BME280;48197;42.732;27.192;2023-05-27T13:32:29;99460.69;;;17.23;100.00
62201;BME280;48197;42.732;27.192;2023-05-27T13:34:56;99466.88;;;17.18;100.00
62201;BME280;48197;42.732;27.192;2023-05-27T13:37:23;99457.97;;;17.10;100.00